Time;durP1;ratioP1;P1;durP2;ratioP2;P2;SDS_P1;SDS_P2;PMS_P1;PMS_P2;Temp;Humidity;BMP_temperature;BMP_pressure;BME280_temperature;BME280_humidity;BME280_pressure;Samples;Min_cycle;Max_cycle;Signal;HPM_P1;HPM_P2
2023/12/11 00:01:07;;;;;;;;;;;;;;;12.74;nan;99951.84;5015674;28;20039;-86
2023/12/11 00:03:32;;;;;;;;;;;;;;;12.74;nan;99951.84;5033128;28;20527;-86
2023/12/11 00:05:58;;;;;;;;;;;;;;;12.77;nan;99948.63;5031464;28;20042;-86
2023/12/11 00:08:23;;;;;;;;;;;;;;;12.82;nan;99947.75;5032415;28;19983;-85
2023/12/11 00:10:49;;;;;;;;;;;;;;;12.84;nan;99938.31;5032524;28;19931;-85
2023/12/11 00:13:14;;;;;;;;;;;;;;;12.87;nan;99935.06;5016450;28;19925;-85
2023/12/11 00:15:39;;;;;;;;;;;;;;;12.89;nan;99932.91;5032876;28;19957;-86
2023/12/11 00:18:05;;;;;;;;;;;;;;;12.88;nan;99935.88;5032562;28;19928;-85
2023/12/11 00:20:31;;;;;;;;;;;;;;;12.86;nan;99927.28;5031394;28;19967;-87
2023/12/11 00:22:56;;;;;;;;;;;;;;;12.85;nan;99918.44;5032704;28;20635;-86
2023/12/11 00:25:21;;;;;;;;;;;;;;;12.87;nan;99918.13;5032612;28;19936;-86
2023/12/11 00:27:47;;;;;;;;;;;;;;;12.87;nan;99918.94;5032211;28;19925;-86
2023/12/11 00:30:14;;;;;;;;;;;;;;;12.86;nan;99909.28;5032544;28;19928;-86
2023/12/11 00:32:39;;;;;;;;;;;;;;;12.89;nan;99908.69;5032667;28;19929;-86
2023/12/11 00:35:05;;;;;;;;;;;;;;;12.91;nan;99903.03;5033082;28;20871;-85
2023/12/11 00:37:30;;;;;;;;;;;;;;;12.92;nan;99894.69;5032373;28;19955;-86
2023/12/11 00:39:55;;;;;;;;;;;;;;;12.88;nan;99887.47;5031212;28;19917;-86
2023/12/11 00:42:20;;;;;;;;;;;;;;;12.87;nan;99878.63;5015281;28;19932;-86
2023/12/11 00:44:46;;;;;;;;;;;;;;;12.90;nan;99879.94;5021007;28;19924;-87
2023/12/11 00:47:11;;;;;;;;;;;;;;;12.89;nan;99879.13;5033208;28;19950;-87
2023/12/11 00:49:36;;;;;;;;;;;;;;;12.87;nan;99870.53;5031786;28;19929;-86
2023/12/11 00:52:02;;;;;;;;;;;;;;;12.84;nan;99871.13;5033148;28;19978;-86
2023/12/11 00:54:27;;;;;;;;;;;;;;;12.82;nan;99870.59;5031659;28;19924;-86
2023/12/11 00:56:53;;;;;;;;;;;;;;;12.83;nan;99868.72;5032974;28;19925;-86
2023/12/11 00:59:18;;;;;;;;;;;;;;;12.84;nan;99862.25;5031463;28;20015;-86
2023/12/11 01:01:43;;;;;;;;;;;;;;;12.83;nan;99861.47;5033410;28;19920;-86
2023/12/11 01:04:11;;;;;;;;;;;;;;;12.86;nan;99850.13;5033215;28;19925;-86
2023/12/11 01:06:36;;;;;;;;;;;;;;;12.84;nan;99851.50;5031968;28;21457;-86
2023/12/11 01:09:01;;;;;;;;;;;;;;;12.84;nan;99846.94;5031636;28;20004;-86
2023/12/11 01:11:29;;;;;;;;;;;;;;;12.82;nan;99846.41;5031880;28;20200;-86
2023/12/11 01:13:55;;;;;;;;;;;;;;;12.77;nan;99848.34;5032167;28;19925;-86
2023/12/11 01:16:20;;;;;;;;;;;;;;;12.73;nan;99853.47;5031376;28;19947;-86
2023/12/11 01:18:46;;;;;;;;;;;;;;;12.65;nan;99848.72;5033015;28;19928;-87
2023/12/11 01:21:11;;;;;;;;;;;;;;;12.61;nan;99847.69;5031933;28;19921;-86
2023/12/11 01:23:36;;;;;;;;;;;;;;;12.59;nan;99842.63;5031471;28;19925;-86
2023/12/11 01:26:02;;;;;;;;;;;;;;;12.60;nan;99843.41;5033218;28;19925;-86
2023/12/11 01:28:27;;;;;;;;;;;;;;;12.55;nan;99838.06;5033639;28;19925;-86
2023/12/11 01:30:52;;;;;;;;;;;;;;;12.51;nan;99834.34;5033371;28;19925;-86
2023/12/11 01:33:18;;;;;;;;;;;;;;;12.54;nan;99836.47;5029947;28;20301;-87
2023/12/11 01:35:43;;;;;;;;;;;;;;;12.56;nan;99827.03;5016553;28;20507;-86
2023/12/11 01:38:08;;;;;;;;;;;;;;;12.52;nan;99828.69;5017209;28;19931;-86
2023/12/11 01:40:34;;;;;;;;;;;;;;;12.52;nan;99826.00;5010633;28;19932;-86
2023/12/11 01:43:12;;;;;;;;;;;;;;;12.52;nan;99831.38;5031445;28;19925;-86
2023/12/11 01:45:38;;;;;;;;;;;;;;;12.51;nan;99818.22;5031775;28;19921;-86
2023/12/11 01:48:03;;;;;;;;;;;;;;;12.55;nan;99816.56;5031782;28;20337;-86
2023/12/11 01:50:29;;;;;;;;;;;;;;;12.61;nan;99818.16;5030061;28;19925;-86
2023/12/11 01:52:54;;;;;;;;;;;;;;;12.63;nan;99805.22;5031509;28;19925;-86
2023/12/11 01:55:20;;;;;;;;;;;;;;;12.65;nan;99805.72;5032387;28;19925;-86
2023/12/11 01:57:45;;;;;;;;;;;;;;;12.66;nan;99799.28;5032703;28;19921;-86
2023/12/11 02:00:11;;;;;;;;;;;;;;;12.68;nan;99794.41;5031779;28;19989;-86
2023/12/11 02:02:36;;;;;;;;;;;;;;;12.71;nan;99791.16;5016049;28;19995;-86
2023/12/11 02:05:01;;;;;;;;;;;;;;;12.71;nan;99781.19;5030852;28;20005;-86
2023/12/11 02:07:27;;;;;;;;;;;;;;;12.71;nan;99778.50;5030392;28;19917;-87
2023/12/11 02:09:52;;;;;;;;;;;;;;;12.70;nan;99773.41;5030837;28;20397;-86
2023/12/11 02:12:17;;;;;;;;;;;;;;;12.65;nan;99776.16;5030757;28;19925;-86
2023/12/11 02:14:43;;;;;;;;;;;;;;;12.60;nan;99768.97;5031945;28;19931;-86
2023/12/11 02:17:08;;;;;;;;;;;;;;;12.59;nan;99753.13;5030959;28;19921;-86
2023/12/11 02:19:34;;;;;;;;;;;;;;;12.59;nan;99751.25;5028530;28;19928;-86
2023/12/11 02:21:59;;;;;;;;;;;;;;;12.61;nan;99742.91;5030503;28;19979;-86
2023/12/11 02:24:28;;;;;;;;;;;;;;;12.60;nan;99744.00;5031558;28;19925;-87
2023/12/11 02:26:53;;;;;;;;;;;;;;;12.62;nan;99729.19;5018788;28;19924;-86
2023/12/11 02:29:20;;;;;;;;;;;;;;;12.65;nan;99725.91;5031040;28;20397;-86
2023/12/11 02:31:45;;;;;;;;;;;;;;;12.65;nan;99717.06;5030737;28;19925;-85
2023/12/11 02:34:10;;;;;;;;;;;;;;;12.66;nan;99713.28;5030305;28;19983;-86
2023/12/11 02:36:36;;;;;;;;;;;;;;;12.66;nan;99697.16;5031605;28;19925;-86
2023/12/11 02:39:01;;;;;;;;;;;;;;;12.64;nan;99689.38;5030356;28;20603;-85
2023/12/11 02:41:26;;;;;;;;;;;;;;;12.60;nan;99685.66;5007568;28;19932;-86
2023/12/11 02:43:52;;;;;;;;;;;;;;;12.57;nan;99688.94;5030513;28;20777;-85
2023/12/11 02:46:17;;;;;;;;;;;;;;;12.54;nan;99678.75;5029731;28;20436;-85
2023/12/11 02:48:42;;;;;;;;;;;;;;;12.49;nan;99681.50;5030372;28;20019;-86
2023/12/11 02:51:08;;;;;;;;;;;;;;;12.46;nan;99670.53;5029996;28;19952;-86
2023/12/11 02:53:33;;;;;;;;;;;;;;;12.47;nan;99666.75;5029663;28;19925;-86
2023/12/11 02:55:58;;;;;;;;;;;;;;;12.44;nan;99654.69;5030139;28;21145;-86
2023/12/11 02:58:24;;;;;;;;;;;;;;;12.42;nan;99648.81;5029640;28;19925;-86
2023/12/11 03:00:49;;;;;;;;;;;;;;;12.45;nan;99636.69;5031203;28;20398;-85
2023/12/11 03:03:14;;;;;;;;;;;;;;;12.50;nan;99632.03;5028638;28;19960;-85
2023/12/11 03:05:40;;;;;;;;;;;;;;;12.57;nan;99629.03;5030375;28;19929;-85
2023/12/11 03:08:05;;;;;;;;;;;;;;;12.58;nan;99633.31;5028673;28;19975;-86
2023/12/11 03:10:31;;;;;;;;;;;;;;;12.61;nan;99627.34;5028810;28;20007;-85
2023/12/11 03:12:57;;;;;;;;;;;;;;;12.61;nan;99616.59;5029596;28;19925;-85
2023/12/11 03:15:22;;;;;;;;;;;;;;;12.57;nan;99613.69;5029265;28;20405;-85
2023/12/11 03:17:47;;;;;;;;;;;;;;;12.56;nan;99612.06;5029542;28;19925;-85
2023/12/11 03:20:13;;;;;;;;;;;;;;;12.54;nan;99605.41;5027812;28;20576;-86
2023/12/11 03:22:38;;;;;;;;;;;;;;;12.52;nan;99607.56;5016404;28;19982;-86
2023/12/11 03:25:04;;;;;;;;;;;;;;;12.47;nan;99596.91;5028815;28;19971;-85
2023/12/11 03:27:29;;;;;;;;;;;;;;;12.47;nan;99588.84;5027979;28;21213;-85
2023/12/11 03:29:54;;;;;;;;;;;;;;;12.48;nan;99587.75;5028172;28;19925;-85
2023/12/11 03:32:20;;;;;;;;;;;;;;;12.47;nan;99586.16;5028699;28;19929;-85
2023/12/11 03:34:45;;;;;;;;;;;;;;;12.47;nan;99583.47;5030188;28;20669;-86
2023/12/11 03:37:10;;;;;;;;;;;;;;;12.42;nan;99578.16;5029487;28;20409;-85
2023/12/11 03:39:36;;;;;;;;;;;;;;;12.41;nan;99574.69;5028718;28;19967;-85
2023/12/11 03:42:01;;;;;;;;;;;;;;;12.45;nan;99577.59;5029427;28;19921;-85
2023/12/11 03:44:27;;;;;;;;;;;;;;;12.40;nan;99578.47;5030911;28;20326;-90
2023/12/11 03:46:52;;;;;;;;;;;;;;;12.35;nan;99568.56;5038769;28;19987;-90
2023/12/11 03:49:19;;;;;;;;;;;;;;;12.36;nan;99564.78;5035610;28;19927;-90
2023/12/11 03:51:45;;;;;;;;;;;;;;;12.35;nan;99563.19;5039566;28;19927;-89
2023/12/11 03:54:10;;;;;;;;;;;;;;;12.37;nan;99561.00;5040118;28;20577;-89
2023/12/11 03:56:36;;;;;;;;;;;;;;;12.37;nan;99563.69;5039215;28;20402;-89
2023/12/11 03:59:01;;;;;;;;;;;;;;;12.39;nan;99564.22;5044262;28;20000;-88
2023/12/11 04:01:26;;;;;;;;;;;;;;;12.39;nan;99556.16;5027652;28;19971;-89
2023/12/11 04:03:52;;;;;;;;;;;;;;;12.37;nan;99552.94;5044481;28;19912;-89
2023/12/11 04:06:17;;;;;;;;;;;;;;;12.36;nan;99553.25;5021580;28;19917;-89
2023/12/11 04:08:42;;;;;;;;;;;;;;;12.38;nan;99551.84;5042238;28;19994;-89
2023/12/11 04:11:08;;;;;;;;;;;;;;;12.41;nan;99553.19;5041267;28;19921;-89
2023/12/11 04:13:33;;;;;;;;;;;;;;;12.42;nan;99557.47;5026975;28;20015;-89
2023/12/11 04:15:59;;;;;;;;;;;;;;;12.42;nan;99554.00;5041238;28;20396;-89
2023/12/11 04:18:24;;;;;;;;;;;;;;;12.39;nan;99553.50;5038585;28;20541;-88
2023/12/11 04:20:49;;;;;;;;;;;;;;;12.37;nan;99547.56;5039718;28;19924;-88
2023/12/11 04:23:15;;;;;;;;;;;;;;;12.39;nan;99547.31;5038193;28;20421;-89
2023/12/11 04:25:40;;;;;;;;;;;;;;;12.39;nan;99550.81;5041183;28;19975;-88
2023/12/11 04:28:06;;;;;;;;;;;;;;;12.39;nan;99550.81;5039182;28;19913;-88
2023/12/11 04:30:31;;;;;;;;;;;;;;;12.40;nan;99549.72;5038878;28;19929;-88
2023/12/11 04:32:56;;;;;;;;;;;;;;;12.39;nan;99548.13;5038970;28;20512;-87
2023/12/11 04:35:22;;;;;;;;;;;;;;;12.40;nan;99543.53;5041386;28;20396;-88
2023/12/11 04:37:47;;;;;;;;;;;;;;;12.43;nan;99552.91;5040064;28;20311;-87
2023/12/11 04:40:13;;;;;;;;;;;;;;;12.40;nan;99552.41;5037597;28;19920;-88
2023/12/11 04:42:38;;;;;;;;;;;;;;;12.37;nan;99547.56;5037583;28;19925;-88
2023/12/11 04:45:03;;;;;;;;;;;;;;;12.35;nan;99544.38;5023614;28;19932;-88
2023/12/11 04:47:29;;;;;;;;;;;;;;;12.38;nan;99548.38;5022422;28;20579;-88
2023/12/11 04:49:54;;;;;;;;;;;;;;;12.44;nan;99549.13;5037871;28;20005;-88
2023/12/11 04:52:19;;;;;;;;;;;;;;;12.51;nan;99549.56;5022120;28;19998;-88
2023/12/11 04:54:45;;;;;;;;;;;;;;;12.60;nan;99558.59;5039801;28;19921;-88
2023/12/11 04:57:10;;;;;;;;;;;;;;;12.66;nan;99558.22;5039023;28;20034;-88
2023/12/11 04:59:35;;;;;;;;;;;;;;;12.68;nan;99561.41;5041588;28;19932;-88
2023/12/11 05:02:01;;;;;;;;;;;;;;;12.67;nan;99567.06;5039014;28;19920;-88
2023/12/11 05:04:26;;;;;;;;;;;;;;;12.61;nan;99570.94;5039262;28;19928;-87
2023/12/11 05:06:52;;;;;;;;;;;;;;;12.57;nan;99569.91;5042017;28;20417;-88
2023/12/11 05:09:17;;;;;;;;;;;;;;;12.53;nan;99569.66;5039319;28;19920;-88
2023/12/11 05:11:42;;;;;;;;;;;;;;;12.57;nan;99578.78;5044779;28;20307;-88
2023/12/11 05:14:08;;;;;;;;;;;;;;;12.62;nan;99573.31;5039897;28;20396;-88
2023/12/11 05:16:33;;;;;;;;;;;;;;;12.62;nan;99567.16;5037366;28;21537;-89
2023/12/11 05:18:58;;;;;;;;;;;;;;;12.62;nan;99565.25;5036533;28;19927;-88
2023/12/11 05:21:24;;;;;;;;;;;;;;;12.68;nan;99561.41;5021099;28;19920;-88
2023/12/11 05:23:50;;;;;;;;;;;;;;;12.65;nan;99572.75;5038165;28;19924;-87
2023/12/11 05:26:19;;;;;;;;;;;;;;;12.68;nan;99571.34;5038221;28;19925;-88
2023/12/11 05:28:44;;;;;;;;;;;;;;;12.74;nan;99570.19;5020452;28;19929;-87
2023/12/11 05:31:09;;;;;;;;;;;;;;;12.82;nan;99564.16;5037366;28;19924;-87
2023/12/11 05:33:35;;;;;;;;;;;;;;;12.88;nan;99567.56;5036764;28;19947;-88
2023/12/11 05:36:00;;;;;;;;;;;;;;;12.95;nan;99573.41;5024643;28;19925;-88
2023/12/11 05:38:25;;;;;;;;;;;;;;;13.00;nan;99568.72;5040457;28;19975;-88
2023/12/11 05:40:51;;;;;;;;;;;;;;;13.05;nan;99569.75;5041210;28;19988;-89
2023/12/11 05:43:16;;;;;;;;;;;;;;;13.09;nan;99576.91;5039398;28;19925;-88
2023/12/11 05:45:41;;;;;;;;;;;;;;;13.08;nan;99572.63;5039117;28;19931;-89
2023/12/11 05:48:07;;;;;;;;;;;;;;;13.11;nan;99574.75;5032031;28;19948;-89
2023/12/11 05:50:32;;;;;;;;;;;;;;;13.17;nan;99575.47;5037867;28;19920;-89
2023/12/11 05:52:58;;;;;;;;;;;;;;;13.21;nan;99581.88;5039125;28;19943;-88
2023/12/11 05:55:23;;;;;;;;;;;;;;;13.23;nan;99582.38;5039941;28;19921;-87
2023/12/11 05:57:48;;;;;;;;;;;;;;;13.24;nan;99589.38;5023211;28;19924;-89
2023/12/11 06:00:14;;;;;;;;;;;;;;;13.23;nan;99593.16;5035846;28;19931;-88
2023/12/11 06:02:39;;;;;;;;;;;;;;;13.18;nan;99596.72;5020890;28;19916;-88
2023/12/11 06:05:05;;;;;;;;;;;;;;;13.21;nan;99581.88;5038043;28;19925;-88
2023/12/11 06:07:31;;;;;;;;;;;;;;;13.23;nan;99590.47;5040345;28;19943;-88
2023/12/11 06:09:56;;;;;;;;;;;;;;;13.26;nan;99577.22;5036793;28;19931;-89
2023/12/11 06:12:21;;;;;;;;;;;;;;;13.28;nan;99579.59;5038988;28;20427;-88
2023/12/11 06:14:47;;;;;;;;;;;;;;;13.36;nan;99584.34;5020557;28;20381;-89
2023/12/11 06:17:12;;;;;;;;;;;;;;;13.40;nan;99585.34;5018597;28;20039;-86
2023/12/11 06:19:42;;;;;;;;;;;;;;;13.42;nan;99583.16;5038896;28;19935;-88
2023/12/11 06:22:07;;;;;;;;;;;;;;;13.47;nan;99585.78;5039787;28;19928;-88
2023/12/11 06:24:33;;;;;;;;;;;;;;;13.50;nan;99587.88;5022939;28;19917;-89
2023/12/11 06:26:58;;;;;;;;;;;;;;;13.54;nan;99586.19;5038654;28;19940;-88
2023/12/11 06:29:23;;;;;;;;;;;;;;;13.57;nan;99598.25;5030581;28;19929;-88
2023/12/11 06:31:49;;;;;;;;;;;;;;;13.61;nan;99594.66;5038967;28;19928;-88
2023/12/11 06:34:15;;;;;;;;;;;;;;;13.65;nan;99596.78;5038547;28;20008;-89
2023/12/11 06:36:40;;;;;;;;;;;;;;;13.72;nan;99600.66;5038093;28;20419;-88
2023/12/11 06:39:05;;;;;;;;;;;;;;;13.74;nan;99603.06;5037895;28;19967;-89
2023/12/11 06:41:31;;;;;;;;;;;;;;;13.77;nan;99600.56;5035910;28;19943;-88
2023/12/11 06:43:57;;;;;;;;;;;;;;;13.78;nan;99614.81;5038612;28;19985;-88
2023/12/11 06:46:22;;;;;;;;;;;;;;;13.84;nan;99608.28;5037374;28;19921;-88
2023/12/11 06:48:48;;;;;;;;;;;;;;;13.87;nan;99607.69;5040022;28;19930;-89
2023/12/11 06:51:16;;;;;;;;;;;;;;;13.91;nan;99616.75;5022701;28;19999;-88
2023/12/11 06:53:42;;;;;;;;;;;;;;;13.90;nan;99620.53;5019874;28;19917;-88
2023/12/11 06:56:07;;;;;;;;;;;;;;;13.88;nan;99620.84;5040989;28;19959;-88
2023/12/11 06:58:33;;;;;;;;;;;;;;;13.88;nan;99618.16;5035595;28;19983;-88
2023/12/11 07:00:58;;;;;;;;;;;;;;;13.91;nan;99622.94;5037573;28;19928;-89
2023/12/11 07:03:24;;;;;;;;;;;;;;;13.92;nan;99621.03;5038590;28;19962;-89
2023/12/11 07:05:49;;;;;;;;;;;;;;;13.93;nan;99628.03;5039170;28;19924;-90
2023/12/11 07:08:14;;;;;;;;;;;;;;;13.94;nan;99635.00;5021951;28;19925;-89
2023/12/11 07:10:40;;;;;;;;;;;;;;;13.98;nan;99635.19;5040367;28;20054;-89
2023/12/11 07:13:05;;;;;;;;;;;;;;;13.97;nan;99634.41;5035436;28;19925;-90
2023/12/11 07:15:30;;;;;;;;;;;;;;;14.03;nan;99638.63;5038107;28;19917;-88
2023/12/11 07:17:56;;;;;;;;;;;;;;;14.01;nan;99646.19;5021922;28;19925;-90
2023/12/11 07:20:22;;;;;;;;;;;;;;;14.03;nan;99654.78;5040484;28;20192;-90
2023/12/11 07:22:48;;;;;;;;;;;;;;;14.05;nan;99644.50;5040801;28;20012;-90
2023/12/11 07:25:13;;;;;;;;;;;;;;;14.06;nan;99646.09;5040282;28;20011;-89
2023/12/11 07:27:41;;;;;;;;;;;;;;;14.06;nan;99650.69;5037993;28;19967;-90
2023/12/11 07:30:07;;;;;;;;;;;;;;;14.12;nan;99647.59;5042167;28;20578;-90
2023/12/11 07:32:32;;;;;;;;;;;;;;;14.14;nan;99655.38;5043368;28;20008;-90
2023/12/11 07:34:57;;;;;;;;;;;;;;;14.19;nan;99653.41;5043646;28;19959;-90
2023/12/11 07:37:23;;;;;;;;;;;;;;;14.23;nan;99658.19;5026140;28;20439;-90
2023/12/11 07:39:48;;;;;;;;;;;;;;;14.27;nan;99659.19;5028684;28;20376;-90
2023/12/11 07:42:14;;;;;;;;;;;;;;;14.30;nan;99648.59;5048472;28;20400;-90
2023/12/11 07:44:39;;;;;;;;;;;;;;;14.35;nan;99666.56;5046623;28;19917;-89
2023/12/11 07:47:04;;;;;;;;;;;;;;;14.35;nan;99661.16;5041214;28;19921;-90
2023/12/11 07:49:30;;;;;;;;;;;;;;;14.34;nan;99659.56;5043675;28;20385;-89
2023/12/11 07:51:55;;;;;;;;;;;;;;;14.35;nan;99663.84;5024938;28;20309;-89
2023/12/11 07:54:20;;;;;;;;;;;;;;;14.38;nan;99665.97;5047993;28;19917;-90
2023/12/11 07:56:47;;;;;;;;;;;;;;;14.41;nan;99670.78;5044273;28;20667;-90
2023/12/11 07:59:12;;;;;;;;;;;;;;;14.42;nan;99665.06;5043506;28;20399;-89
2023/12/11 08:01:38;;;;;;;;;;;;;;;14.42;nan;99677.75;5048931;28;19920;-89
2023/12/11 08:04:04;;;;;;;;;;;;;;;14.46;nan;99679.56;5040271;28;19948;-90
2023/12/11 08:06:29;;;;;;;;;;;;;;;14.53;nan;99673.78;5041954;28;19943;-90
2023/12/11 08:08:55;;;;;;;;;;;;;;;14.57;nan;99676.69;5046594;28;20007;-90
2023/12/11 08:11:24;;;;;;;;;;;;;;;14.60;nan;99674.19;5042659;28;19913;-90
2023/12/11 08:13:50;;;;;;;;;;;;;;;14.61;nan;99669.59;5039621;28;19917;-90
2023/12/11 08:16:16;;;;;;;;;;;;;;;14.61;nan;99667.69;5038974;28;20400;-89
2023/12/11 08:18:42;;;;;;;;;;;;;;;14.61;nan;99672.28;5045987;28;19920;-90
2023/12/11 08:21:07;;;;;;;;;;;;;;;14.58;nan;99671.00;5027773;28;19960;-90
2023/12/11 08:23:32;;;;;;;;;;;;;;;14.58;nan;99671.00;5044520;28;20126;-90
2023/12/11 08:25:58;;;;;;;;;;;;;;;14.61;nan;99669.59;5045329;28;19917;-90
2023/12/11 08:28:23;;;;;;;;;;;;;;;14.61;nan;99675.78;5045353;28;20446;-90
2023/12/11 08:30:48;;;;;;;;;;;;;;;14.64;nan;99679.78;5043240;28;19971;-90
2023/12/11 08:33:14;;;;;;;;;;;;;;;14.66;nan;99681.06;5046570;28;19928;-90
2023/12/11 08:35:39;;;;;;;;;;;;;;;14.68;nan;99681.56;5047160;28;19913;-90
2023/12/11 08:38:05;;;;;;;;;;;;;;;14.70;nan;99694.72;5043016;28;19921;-90
2023/12/11 08:40:31;;;;;;;;;;;;;;;14.71;nan;99691.72;5041159;28;20492;-91
2023/12/11 08:42:57;;;;;;;;;;;;;;;14.71;nan;99686.34;5023644;28;19925;-91
2023/12/11 08:45:23;;;;;;;;;;;;;;;14.73;nan;99680.69;5042229;28;20457;-91
2023/12/11 08:47:48;;;;;;;;;;;;;;;14.71;nan;99683.66;5039074;28;19917;-90
2023/12/11 08:50:14;;;;;;;;;;;;;;;14.70;nan;99679.34;5028563;28;19928;-91
2023/12/11 08:52:41;;;;;;;;;;;;;;;14.71;nan;99683.66;5037830;28;19917;-91
2023/12/11 08:55:06;;;;;;;;;;;;;;;14.74;nan;99685.78;5041908;28;19932;-91
2023/12/11 08:57:33;;;;;;;;;;;;;;;14.78;nan;99678.66;5040052;28;19917;-91
2023/12/11 08:59:58;;;;;;;;;;;;;;;14.71;nan;99680.94;5046052;28;19921;-91
2023/12/11 09:02:23;;;;;;;;;;;;;;;14.71;nan;99688.25;5050132;28;19917;-91
2023/12/11 09:04:49;;;;;;;;;;;;;;;14.71;nan;99694.44;5048670;28;19924;-91
2023/12/11 09:07:14;;;;;;;;;;;;;;;14.69;nan;99698.53;5044663;28;19917;-91
2023/12/11 09:09:39;;;;;;;;;;;;;;;14.66;nan;99699.13;5020804;28;19925;-91
2023/12/11 09:12:05;;;;;;;;;;;;;;;14.65;nan;99695.66;5051580;28;19924;-93
2023/12/11 09:14:31;;;;;;;;;;;;;;;14.60;nan;99687.66;5048781;28;19913;-92
2023/12/11 09:16:57;;;;;;;;;;;;;;;14.54;nan;99688.84;5044402;28;19912;-91
2023/12/11 09:19:22;;;;;;;;;;;;;;;14.48;nan;99698.13;5038121;28;20369;-91
2023/12/11 09:21:47;;;;;;;;;;;;;;;14.49;nan;99694.34;5017945;28;20392;-91
2023/12/11 09:24:13;;;;;;;;;;;;;;;14.42;nan;99691.22;5037091;28;19917;-89
2023/12/11 09:26:38;;;;;;;;;;;;;;;14.41;nan;99701.22;5042961;28;19917;-90
2023/12/11 09:29:03;;;;;;;;;;;;;;;14.39;nan;99705.31;5047403;28;19925;-89
2023/12/11 09:31:29;;;;;;;;;;;;;;;14.38;nan;99703.72;5047644;28;19999;-90
2023/12/11 09:33:54;;;;;;;;;;;;;;;14.38;nan;99704.50;5040079;28;20443;-89
2023/12/11 09:36:19;;;;;;;;;;;;;;;14.40;nan;99720.38;5042589;28;20301;-88
2023/12/11 09:38:45;;;;;;;;;;;;;;;14.43;nan;99711.69;5040585;28;20380;-87
2023/12/11 09:41:10;;;;;;;;;;;;;;;14.45;nan;99709.53;5040866;28;20047;-88
2023/12/11 09:43:36;;;;;;;;;;;;;;;14.49;nan;99702.44;5039159;28;19920;-87
2023/12/11 09:46:03;;;;;;;;;;;;;;;14.48;nan;99703.53;5023215;28;19917;-87
2023/12/11 09:48:29;;;;;;;;;;;;;;;14.45;nan;99699.53;5035547;28;20092;-86
2023/12/11 09:50:54;;;;;;;;;;;;;;;14.42;nan;99704.69;5018756;28;20016;-86
2023/12/11 09:53:20;;;;;;;;;;;;;;;14.37;nan;99697.53;5035206;28;20317;-86
2023/12/11 09:55:45;;;;;;;;;;;;;;;14.39;nan;99694.53;5037498;28;19921;-86
2023/12/11 09:58:11;;;;;;;;;;;;;;;14.44;nan;99695.25;5037735;28;19962;-86
2023/12/11 10:00:36;;;;;;;;;;;;;;;14.46;nan;99694.94;5035100;28;19929;-86
2023/12/11 10:03:05;;;;;;;;;;;;;;;14.44;nan;99691.75;5039445;28;19920;-86
2023/12/11 10:05:33;;;;;;;;;;;;;;;14.41;nan;99681.53;5037060;28;20011;-86
2023/12/11 10:08:00;;;;;;;;;;;;;;;14.40;nan;99685.34;5032349;28;19931;-86
2023/12/11 10:10:27;;;;;;;;;;;;;;;14.47;nan;99674.97;5034502;28;19928;-87
2023/12/11 10:12:55;;;;;;;;;;;;;;;14.52;nan;99674.88;5037376;28;20011;-86
2023/12/11 10:15:31;;;;;;;;;;;;;;;14.56;nan;99677.78;5035733;28;20012;-87
2023/12/11 10:18:03;;;;;;;;;;;;;;;14.59;nan;99686.06;5033560;28;20531;-86
2023/12/11 10:20:29;;;;;;;;;;;;;;;14.64;nan;99682.47;5037648;28;20351;-87
2023/12/11 10:22:54;;;;;;;;;;;;;;;14.69;nan;99679.66;5032395;28;20052;-87
2023/12/11 10:25:23;;;;;;;;;;;;;;;14.67;nan;99674.56;5042747;28;20062;-88
2023/12/11 10:27:49;;;;;;;;;;;;;;;14.65;nan;99676.78;5040546;28;20719;-87
2023/12/11 10:30:14;;;;;;;;;;;;;;;14.62;nan;99681.97;5037259;28;20012;-87
2023/12/11 10:32:40;;;;;;;;;;;;;;;14.63;nan;99676.28;5016697;28;20389;-87
2023/12/11 10:35:06;;;;;;;;;;;;;;;14.65;nan;99675.97;5041984;28;19925;-87
2023/12/11 10:37:32;;;;;;;;;;;;;;;14.69;nan;99672.38;5038299;28;19975;-87
2023/12/11 10:39:58;;;;;;;;;;;;;;;14.69;nan;99671.56;5036534;28;20014;-87
2023/12/11 10:42:23;;;;;;;;;;;;;;;14.70;nan;99667.78;5036640;28;20004;-88
2023/12/11 10:44:52;;;;;;;;;;;;;;;14.76;nan;99661.19;5035802;28;19921;-87
2023/12/11 10:47:18;;;;;;;;;;;;;;;14.77;nan;99652.81;5037398;28;19917;-87
2023/12/11 10:49:44;;;;;;;;;;;;;;;14.79;nan;99661.38;5034454;28;19925;-86
2023/12/11 10:52:09;;;;;;;;;;;;;;;14.86;nan;99662.88;5036979;28;20723;-88
2023/12/11 10:54:35;;;;;;;;;;;;;;;14.86;nan;99666.34;5038769;28;19979;-88
2023/12/11 10:57:01;;;;;;;;;;;;;;;14.82;nan;99657.28;5039713;28;19962;-88
2023/12/11 10:59:29;;;;;;;;;;;;;;;14.81;nan;99653.78;5040342;28;19964;-88
2023/12/11 11:01:56;;;;;;;;;;;;;;;14.84;nan;99656.97;5040608;28;20373;-87
2023/12/11 11:04:21;;;;;;;;;;;;;;;14.82;nan;99660.78;5037127;28;19949;-88
2023/12/11 11:06:47;;;;;;;;;;;;;;;14.82;nan;99659.97;5046107;28;20032;-88
2023/12/11 11:09:15;;;;;;;;;;;;;;;14.80;nan;99657.59;5039036;28;20527;-89
2023/12/11 11:11:44;;;;;;;;;;;;;;;14.79;nan;99660.59;5040404;28;19917;-86
2023/12/11 11:14:28;;;;;;;;;;;;;;;14.81;nan;99661.06;5034969;28;20002;-88
2023/12/11 11:16:53;;;;;;;;;;;;;;;14.79;nan;99658.69;5036662;28;20008;-87
2023/12/11 11:19:19;;;;;;;;;;;;;;;14.81;nan;99651.09;5034545;28;20419;-88
2023/12/11 11:22:00;;;;;;;;;;;;;;;14.86;nan;99654.78;5038589;28;19921;-87
2023/12/11 11:24:28;;;;;;;;;;;;;;;14.92;nan;99648.19;5039629;28;19929;-87
2023/12/11 11:26:54;;;;;;;;;;;;;;;14.99;nan;99660.16;5041069;28;19921;-87
2023/12/11 11:29:42;;;;;;;;;;;;;;;14.98;nan;99655.06;5041856;28;20016;-89
2023/12/11 11:32:08;;;;;;;;;;;;;;;14.96;nan;99649.97;5039812;28;19924;-88
2023/12/11 11:34:39;;;;;;;;;;;;;;;14.98;nan;99646.97;5043450;28;19921;-89
2023/12/11 11:37:05;;;;;;;;;;;;;;;14.99;nan;99640.47;5038450;28;20404;-88
2023/12/11 11:39:49;;;;;;;;;;;;;;;14.99;nan;99648.56;5035960;28;19921;-88
2023/12/11 11:42:14;;;;;;;;;;;;;;;15.03;nan;99644.16;5035232;28;19921;-89
2023/12/11 11:44:39;;;;;;;;;;;;;;;15.04;nan;99643.03;5035706;28;19924;-88
2023/12/11 11:47:05;;;;;;;;;;;;;;;14.99;nan;99637.78;5036010;28;19921;-88
2023/12/11 11:49:31;;;;;;;;;;;;;;;14.99;nan;99629.69;5034271;28;19932;-89
2023/12/11 11:51:56;;;;;;;;;;;;;;;15.00;nan;99642.84;5034681;28;19936;-89
2023/12/11 11:54:23;;;;;;;;;;;;;;;15.03;nan;99641.44;5036547;28;19925;-89
2023/12/11 11:56:48;;;;;;;;;;;;;;;15.10;nan;99636.44;5036631;28;19931;-89
2023/12/11 11:59:14;;;;;;;;;;;;;;;15.11;nan;99636.16;5035739;28;20384;-88
2023/12/11 12:01:48;;;;;;;;;;;;;;;15.15;nan;99628.22;5035593;28;19927;-88
2023/12/11 12:04:34;;;;;;;;;;;;;;;15.23;nan;99624.78;5035307;28;19986;-89
2023/12/11 12:07:03;;;;;;;;;;;;;;;15.27;nan;99623.09;5035497;28;19918;-88
2023/12/11 12:09:30;;;;;;;;;;;;;;;15.33;nan;99616.47;5038030;28;19921;-88
2023/12/11 12:11:55;;;;;;;;;;;;;;;15.42;nan;99614.59;5035520;28;20435;-89
2023/12/11 12:14:21;;;;;;;;;;;;;;;15.53;nan;99620.56;5038417;28;20427;-89
2023/12/11 12:16:47;;;;;;;;;;;;;;;15.60;nan;99629.03;5040057;28;19921;-89
2023/12/11 12:19:12;;;;;;;;;;;;;;;15.60;nan;99622.84;5036170;28;20706;-89
2023/12/11 12:21:47;;;;;;;;;;;;;;;15.59;nan;99619.34;5041558;28;19955;-88
2023/12/11 12:24:13;;;;;;;;;;;;;;;15.59;nan;99613.94;5039760;28;19921;-88
2023/12/11 12:26:39;;;;;;;;;;;;;;;15.58;nan;99625.84;5039723;28;20440;-89
2023/12/11 12:29:05;;;;;;;;;;;;;;;15.62;nan;99631.47;5041339;28;19931;-89
2023/12/11 12:31:30;;;;;;;;;;;;;;;15.54;nan;99622.16;5041500;28;19932;-88
2023/12/11 12:33:56;;;;;;;;;;;;;;;15.50;nan;99625.78;5040608;28;19913;-89
2023/12/11 12:36:21;;;;;;;;;;;;;;;15.51;nan;99624.69;5041060;28;19917;-89
2023/12/11 12:38:47;;;;;;;;;;;;;;;15.49;nan;99630.38;5041381;28;19920;-92
2023/12/11 12:41:12;;;;;;;;;;;;;;;15.43;nan;99629.69;5042689;28;19943;-89
2023/12/11 12:43:38;;;;;;;;;;;;;;;15.45;nan;99634.03;5040009;28;19925;-88
2023/12/11 12:46:04;;;;;;;;;;;;;;;15.43;nan;99626.19;5039005;28;19964;-89
2023/12/11 12:48:29;;;;;;;;;;;;;;;15.41;nan;99629.22;5039902;28;19931;-89
2023/12/11 12:51:04;;;;;;;;;;;;;;;15.39;nan;99634.13;5039357;28;20020;-89
2023/12/11 12:53:30;;;;;;;;;;;;;;;15.42;nan;99636.19;5032882;28;19924;-89
2023/12/11 12:55:55;;;;;;;;;;;;;;;15.43;nan;99637.78;5041813;28;19921;-89
2023/12/11 12:58:25;;;;;;;;;;;;;;;15.46;nan;99638.31;5034466;28;19925;-89
2023/12/11 13:00:54;;;;;;;;;;;;;;;15.43;nan;99637.78;5040642;28;19928;-87